createdAt,value
2019-03-08T00:01:50.030Z,6.28
2019-03-08T00:04:39.340Z,6.25
2019-03-08T00:07:28.605Z,4.78
2019-03-08T00:10:17.458Z,2.92
2019-03-08T00:13:06.320Z,5.47
2019-03-08T00:15:56.097Z,3.85
2019-03-08T00:18:45.063Z,3.72
2019-03-08T00:21:34.431Z,7.67
2019-03-08T00:24:23.950Z,5.25
2019-03-08T00:27:12.967Z,7.35
2019-03-08T00:30:02.318Z,5.15
2019-03-08T00:32:51.819Z,3.37
2019-03-08T00:35:40.904Z,3.30
2019-03-08T00:38:30.259Z,7.50
2019-03-08T00:41:19.619Z,5.75
2019-03-08T00:44:08.925Z,7.47
2019-03-08T00:46:57.751Z,6.00
2019-03-08T00:49:46.569Z,9.78
2019-03-08T00:52:35.168Z,7.17
2019-03-08T00:55:24.210Z,4.75
2019-03-08T00:58:14.627Z,15.35
2019-03-08T01:01:03.168Z,11.65
2019-03-08T01:03:52.545Z,5.10
2019-03-08T01:06:41.650Z,6.58
2019-03-08T01:09:30.784Z,7.22
2019-03-08T01:12:19.867Z,6.20
2019-03-08T01:15:16.214Z,6.07
2019-03-08T01:18:05.875Z,6.25
2019-03-08T01:20:55.570Z,5.20
2019-03-08T01:23:44.711Z,7.05
2019-03-08T01:26:34.007Z,3.83
2019-03-08T01:29:23.373Z,8.33
2019-03-08T01:32:12.515Z,5.10
2019-03-08T01:35:01.374Z,7.55
2019-03-08T01:37:50.672Z,7.00
2019-03-08T01:40:40.185Z,6.50
2019-03-08T01:43:29.306Z,7.80
2019-03-08T01:46:18.146Z,5.53
2019-03-08T01:49:07.740Z,6.10
2019-03-08T01:51:57.399Z,7.55
2019-03-08T01:54:46.468Z,4.60
2019-03-08T01:57:35.887Z,4.12
2019-03-08T02:00:25.297Z,8.55
2019-03-08T02:03:17.119Z,5.40
2019-03-08T02:06:05.789Z,6.62
2019-03-08T02:08:54.959Z,4.33
2019-03-08T02:11:44.247Z,4.30
2019-03-08T02:14:33.178Z,4.95
2019-03-08T02:17:22.772Z,5.17
2019-03-08T02:20:20.723Z,7.00
2019-03-08T02:23:09.817Z,5.00
2019-03-08T02:25:59.352Z,7.07
2019-03-08T02:28:48.414Z,4.92
2019-03-08T02:31:37.193Z,5.72
2019-03-08T02:34:26.891Z,4.25
2019-03-08T02:37:16.264Z,7.20
2019-03-08T02:40:26.523Z,3.87
2019-03-08T02:43:18.244Z,4.45
2019-03-08T02:46:07.628Z,4.30
2019-03-08T02:48:56.933Z,4.62
2019-03-08T02:51:46.090Z,4.40
2019-03-08T02:54:35.122Z,5.05
2019-03-08T02:57:24.265Z,4.65
2019-03-08T03:00:17.044Z,5.15
2019-03-08T03:03:05.869Z,4.78
2019-03-08T03:05:55.777Z,4.37
2019-03-08T03:08:44.848Z,4.55
2019-03-08T03:11:34.318Z,5.10
2019-03-08T03:14:23.996Z,4.70
2019-03-08T03:17:13.291Z,5.10
2019-03-08T03:20:02.587Z,6.33
2019-03-08T03:22:51.285Z,4.90
2019-03-08T03:25:40.667Z,6.60
2019-03-08T03:28:29.628Z,7.25
2019-03-08T03:31:19.307Z,6.28
2019-03-08T03:34:08.132Z,8.67
2019-03-08T03:36:57.857Z,7.85
2019-03-08T03:39:47.235Z,7.60
2019-03-08T03:42:36.583Z,7.20
2019-03-08T03:45:25.820Z,7.75
2019-03-08T03:48:14.827Z,6.55
2019-03-08T03:51:03.447Z,6.50
2019-03-08T03:53:52.955Z,6.40
2019-03-08T03:56:41.428Z,6.73
2019-03-08T03:59:30.985Z,4.97
2019-03-08T04:02:19.854Z,6.58
2019-03-08T04:05:10.146Z,5.30
2019-03-08T04:07:59.141Z,3.37
2019-03-08T04:10:48.665Z,3.05
2019-03-08T04:13:37.826Z,2.42
2019-03-08T04:16:26.671Z,2.55
2019-03-08T04:19:16.050Z,3.37
2019-03-08T04:22:05.144Z,10.25
2019-03-08T04:24:55.632Z,2.90
2019-03-08T04:27:44.686Z,4.50
2019-03-08T04:30:34.365Z,4.50
2019-03-08T04:33:23.649Z,2.80
2019-03-08T04:36:12.503Z,3.53
2019-03-08T04:39:01.495Z,3.10
2019-03-08T04:41:50.431Z,2.90
2019-03-08T04:44:39.163Z,2.92
2019-03-08T04:47:28.475Z,2.95
2019-03-08T04:50:18.044Z,3.77
2019-03-08T04:53:07.356Z,4.53
2019-03-08T04:55:56.275Z,3.37
2019-03-08T04:58:45.323Z,6.22
2019-03-08T05:01:34.354Z,4.50
2019-03-08T05:04:23.768Z,5.80
2019-03-08T05:07:13.652Z,2.20
2019-03-08T05:10:02.509Z,2.55
2019-03-08T05:12:51.362Z,2.00
2019-03-08T05:15:40.136Z,3.75
2019-03-08T05:18:29.386Z,3.08
2019-03-08T05:21:18.225Z,4.28
2019-03-08T05:24:08.006Z,2.08
2019-03-08T05:26:56.984Z,2.58
2019-03-08T05:29:46.770Z,3.90
2019-03-08T05:32:35.751Z,1.67
2019-03-08T05:35:25.117Z,1.50
2019-03-08T05:38:13.757Z,1.32
2019-03-08T05:41:03.078Z,1.30
2019-03-08T05:43:53.402Z,1.45
2019-03-08T05:46:42.503Z,2.40
2019-03-08T05:49:32.170Z,3.20
2019-03-08T05:52:20.864Z,2.40
2019-03-08T05:55:12.143Z,1.50
2019-03-08T05:58:01.169Z,5.17
2019-03-08T06:00:50.988Z,3.17
2019-03-08T06:03:39.982Z,5.40
2019-03-08T06:06:28.715Z,5.63
2019-03-08T06:09:18.226Z,8.58
2019-03-08T06:12:06.940Z,5.05
2019-03-08T06:14:56.291Z,10.88
2019-03-08T06:17:46.196Z,12.50
2019-03-08T06:20:35.828Z,7.22
2019-03-08T06:23:25.243Z,8.73
2019-03-08T06:26:14.718Z,6.42
2019-03-08T06:29:03.448Z,5.30
2019-03-08T06:31:52.339Z,6.05
2019-03-08T06:34:41.625Z,11.95
2019-03-08T06:37:30.874Z,9.63
2019-03-08T06:40:20.082Z,12.68
2019-03-08T06:43:09.314Z,10.75
2019-03-08T06:45:58.168Z,21.73
2019-03-08T06:48:47.542Z,8.78
2019-03-08T06:51:36.647Z,25.40
2019-03-08T06:54:25.813Z,19.82
2019-03-08T06:57:14.720Z,18.67
2019-03-08T07:00:06.300Z,18.32
2019-03-08T07:02:54.957Z,16.93
2019-03-08T07:05:44.596Z,21.80
2019-03-08T07:08:33.785Z,26.02
2019-03-08T07:11:22.405Z,64.80
2019-03-08T07:14:11.214Z,34.10
2019-03-08T07:17:00.549Z,24.37
2019-03-08T07:19:52.431Z,29.52
2019-03-08T07:23:01.032Z,29.27
2019-03-08T07:26:01.833Z,30.53
2019-03-08T07:29:08.679Z,26.37
2019-03-08T07:31:59.116Z,37.65
2019-03-08T07:35:05.666Z,36.30
2019-03-08T07:38:04.593Z,32.40
2019-03-08T07:40:55.209Z,49.42
2019-03-08T07:44:02.170Z,41.02
2019-03-08T07:46:55.258Z,32.40
2019-03-08T07:49:46.105Z,36.60
2019-03-08T07:52:36.838Z,37.55
2019-03-08T07:55:42.992Z,42.08
2019-03-08T07:58:33.658Z,32.30
2019-03-08T08:01:40.764Z,36.33
2019-03-08T08:04:31.396Z,32.28
2019-03-08T08:07:27.976Z,28.62
2019-03-08T08:10:27.649Z,30.17
2019-03-08T08:13:16.115Z,31.25
2019-03-08T08:16:06.827Z,41.60
2019-03-08T08:18:57.134Z,36.85
2019-03-08T08:21:50.223Z,30.45
2019-03-08T08:24:43.938Z,35.15
2019-03-08T08:27:40.524Z,31.40
2019-03-08T08:30:31.652Z,22.52
2019-03-08T08:33:20.090Z,28.35
2019-03-08T08:36:13.679Z,22.85
2019-03-08T08:39:13.016Z,30.65
2019-03-08T08:42:19.172Z,19.37
2019-03-08T08:45:14.000Z,25.30
2019-03-08T08:48:04.246Z,32.60
2019-03-08T08:51:03.882Z,28.38
2019-03-08T08:54:00.163Z,33.48
2019-03-08T08:56:50.890Z,32.13
2019-03-08T08:59:41.619Z,33.48
2019-03-08T09:02:37.754Z,21.50
2019-03-08T09:05:36.873Z,33.83
2019-03-08T09:08:30.529Z,20.92
2019-03-08T09:11:44.267Z,26.10
2019-03-08T09:14:28.471Z,24.77
2019-03-08T09:17:21.813Z,18.05
2019-03-08T09:20:15.295Z,20.65
2019-03-08T09:23:08.571Z,24.12
2019-03-08T09:26:17.045Z,30.52
2019-03-08T09:29:19.719Z,23.45
2019-03-08T09:32:26.075Z,24.60
2019-03-08T09:35:16.686Z,25.62
2019-03-08T09:38:07.283Z,21.97
2019-03-08T09:41:05.422Z,29.55
2019-03-08T09:44:11.384Z,21.85
2019-03-08T09:47:06.338Z,27.42
2019-03-08T09:49:57.300Z,29.10
2019-03-08T09:52:56.850Z,22.05
2019-03-08T09:55:48.149Z,20.23
2019-03-08T09:58:42.864Z,31.80
2019-03-08T10:01:51.664Z,20.90
2019-03-08T10:05:00.830Z,20.72
2019-03-08T10:08:08.129Z,24.00
2019-03-08T10:10:58.290Z,25.05
2019-03-08T10:14:05.189Z,30.90
2019-03-08T10:16:58.773Z,22.05
2019-03-08T10:19:55.159Z,26.27
2019-03-08T10:22:51.611Z,17.15
2019-03-08T10:25:42.750Z,19.17
2019-03-08T10:28:48.637Z,21.87
2019-03-08T10:31:40.738Z,19.62
2019-03-08T10:34:32.686Z,18.02
2019-03-08T10:37:23.578Z,20.12
2019-03-08T10:40:26.305Z,25.57
2019-03-08T10:43:16.608Z,24.43
2019-03-08T10:46:23.944Z,22.85
2019-03-08T10:49:14.702Z,14.40
2019-03-08T10:52:04.966Z,16.15
2019-03-08T10:57:46.193Z,15.20
2019-03-08T11:06:38.233Z,16.10
2019-03-08T11:09:40.273Z,18.55
2019-03-08T11:12:31.510Z,19.52
2019-03-08T11:15:34.466Z,15.95
2019-03-08T11:18:30.857Z,9.27
2019-03-08T11:56:25.243Z,15.10
2019-03-08T11:59:15.967Z,15.10
2019-03-08T12:02:10.033Z,15.90
2019-03-08T12:05:01.899Z,12.60
2019-03-08T12:26:10.004Z,21.35
2019-03-08T12:31:59.627Z,15.13
2019-03-08T12:34:53.682Z,21.97
2019-03-08T12:37:45.037Z,14.90
2019-03-08T12:40:35.894Z,14.03
2019-03-08T12:43:42.423Z,14.63
2019-03-08T12:46:41.611Z,18.30
2019-03-08T12:49:41.379Z,11.73
2019-03-08T12:52:32.023Z,17.40
2019-03-08T12:55:22.598Z,23.20
2019-03-08T12:58:29.227Z,12.80
2019-03-08T13:01:24.989Z,11.00
2019-03-08T14:00:30.683Z,20.75
2019-03-08T14:03:20.025Z,8.10
2019-03-08T14:11:45.403Z,22.10
2019-03-08T14:23:14.054Z,18.50
2019-03-08T14:48:51.904Z,12.82
2019-03-08T14:51:44.770Z,21.93
2019-03-08T14:54:32.030Z,20.27
2019-03-08T14:57:27.236Z,16.85
2019-03-08T15:00:18.410Z,13.62
2019-03-08T15:03:07.686Z,14.70
2019-03-08T15:05:56.713Z,12.78
2019-03-08T15:08:46.429Z,15.18
2019-03-08T15:11:35.821Z,13.72
2019-03-08T15:14:25.067Z,19.30
2019-03-08T15:17:16.811Z,13.50
2019-03-08T15:20:15.128Z,16.85
2019-03-08T15:23:00.440Z,15.40
2019-03-08T15:25:50.535Z,17.70
2019-03-08T15:28:40.307Z,14.03
2019-03-08T15:31:29.645Z,15.23
2019-03-08T15:34:21.408Z,17.80
2019-03-08T15:37:10.018Z,12.82
2019-03-08T15:39:59.438Z,15.80
2019-03-08T15:42:49.104Z,20.10
2019-03-08T15:45:40.144Z,16.17
2019-03-08T15:48:28.162Z,14.60
2019-03-08T15:51:20.848Z,13.72
2019-03-08T15:54:08.455Z,13.90
2019-03-08T15:56:57.550Z,11.45
2019-03-08T15:59:46.882Z,10.50
2019-03-08T16:02:35.707Z,12.23
2019-03-08T16:05:28.065Z,8.65
2019-03-08T16:08:15.410Z,9.45
2019-03-08T16:11:04.779Z,16.00
2019-03-08T16:13:54.234Z,16.30
2019-03-08T16:16:43.625Z,13.90
2019-03-08T16:19:32.697Z,18.17
2019-03-08T16:22:24.869Z,9.45
2019-03-08T16:25:16.049Z,12.88
2019-03-08T16:28:05.818Z,14.60
2019-03-08T16:30:59.283Z,14.78
2019-03-08T16:33:52.922Z,12.82
2019-03-08T16:36:49.195Z,13.48
2019-03-08T16:39:39.167Z,14.47
2019-03-08T16:42:29.468Z,12.93
2019-03-08T16:45:19.707Z,15.05
2019-03-08T16:48:10.270Z,15.50
2019-03-08T16:51:03.741Z,16.20
2019-03-08T16:53:54.997Z,13.18
2019-03-08T16:56:52.476Z,7.87
2019-03-08T16:59:49.256Z,22.30
2019-03-08T17:02:38.803Z,11.22
2019-03-08T17:05:42.096Z,20.65
2019-03-08T17:08:36.220Z,8.25
2019-03-08T17:11:35.466Z,10.23
2019-03-08T17:14:29.025Z,13.48
2019-03-08T17:17:35.124Z,10.60
2019-03-08T17:20:28.318Z,9.15
2019-03-08T17:23:19.221Z,10.05
2019-03-08T17:26:26.127Z,17.90
2019-03-08T17:29:19.564Z,16.97
2019-03-08T17:32:08.176Z,11.05
2019-03-08T17:35:15.640Z,20.30
2019-03-08T17:38:08.813Z,16.77
2019-03-08T17:41:15.445Z,24.63
2019-03-08T17:44:11.519Z,9.33
2019-03-08T17:47:02.829Z,17.77
2019-03-08T17:50:09.892Z,9.98
2019-03-08T17:53:13.192Z,22.00
2019-03-08T17:56:04.270Z,14.87
2019-03-08T17:58:57.703Z,18.60
2019-03-08T18:01:48.554Z,9.95
2019-03-08T18:04:41.673Z,12.07
2019-03-08T18:07:35.246Z,16.10
2019-03-08T18:10:27.954Z,8.13
2019-03-08T18:13:24.178Z,24.67
2019-03-08T18:16:14.439Z,7.78
2019-03-08T18:19:23.556Z,12.83
2019-03-08T18:22:17.204Z,8.73
2019-03-08T18:25:08.920Z,14.43
2019-03-08T18:28:15.604Z,14.58
2019-03-08T18:31:11.447Z,11.33
2019-03-08T18:34:07.643Z,10.25
2019-03-08T18:36:58.253Z,11.03
2019-03-08T18:39:51.772Z,12.03
2019-03-08T18:42:42.307Z,21.10
2019-03-08T18:45:36.462Z,9.08
2019-03-08T18:48:27.930Z,13.85
2019-03-08T18:51:18.434Z,18.90
2019-03-08T18:54:08.912Z,36.75
2019-03-08T18:57:11.000Z,17.40
2019-03-08T19:00:18.601Z,21.50
2019-03-08T19:03:25.256Z,26.90
2019-03-08T19:06:16.675Z,15.28
2019-03-08T19:09:12.525Z,20.88
2019-03-08T19:12:07.251Z,27.77
2019-03-08T19:15:15.940Z,24.75
2019-03-08T19:18:09.685Z,15.13
2019-03-08T19:21:03.999Z,13.22
2019-03-08T19:24:03.514Z,18.92
2019-03-08T19:27:03.222Z,17.90
2019-03-08T19:29:53.943Z,16.40
2019-03-08T19:32:47.803Z,15.72
2019-03-08T19:35:36.405Z,18.73
2019-03-08T19:38:33.072Z,16.67
2019-03-08T19:41:23.765Z,14.50
2019-03-08T19:44:30.313Z,20.68
2019-03-08T19:47:33.266Z,16.50
2019-03-08T19:50:35.572Z,13.38
2019-03-08T19:53:28.394Z,14.28
2019-03-08T19:56:29.542Z,22.35
2019-03-08T19:59:18.343Z,17.17
2019-03-08T20:02:12.074Z,20.32
2019-03-08T20:05:02.343Z,25.37
2019-03-08T20:08:04.681Z,19.42
2019-03-08T20:11:05.440Z,13.28
2019-03-08T20:14:08.618Z,24.92
2019-03-08T20:16:59.280Z,17.40
2019-03-08T20:19:55.748Z,10.32
2019-03-08T20:22:44.986Z,16.97
2019-03-08T20:25:47.233Z,36.40
2019-03-08T20:28:49.331Z,16.82
2019-03-08T20:31:43.221Z,22.35
2019-03-08T20:34:34.427Z,13.32
2019-03-08T20:37:24.661Z,12.70
2019-03-08T20:40:28.225Z,15.03
2019-03-08T20:43:18.329Z,17.00
2019-03-08T20:46:09.419Z,14.30
2019-03-08T20:48:58.472Z,11.90
2019-03-08T20:51:48.134Z,19.05
2019-03-08T20:54:36.928Z,12.63
2019-03-08T20:57:25.675Z,15.78
2019-03-08T21:00:17.683Z,18.82
2019-03-08T21:03:06.909Z,12.53
2019-03-08T21:05:55.850Z,11.25
2019-03-08T21:08:44.824Z,11.93
2019-03-08T21:11:33.748Z,18.77
2019-03-08T21:14:23.254Z,19.00
2019-03-08T21:17:12.713Z,21.30
2019-03-08T21:20:01.287Z,17.40
2019-03-08T21:22:50.949Z,17.75
2019-03-08T21:25:40.096Z,18.77
2019-03-08T21:28:28.880Z,15.70
2019-03-08T21:31:18.366Z,22.25
2019-03-08T21:34:08.018Z,15.20
2019-03-08T21:36:57.574Z,14.58
2019-03-08T21:39:46.659Z,15.80
2019-03-08T21:42:36.905Z,13.58
2019-03-08T21:45:26.433Z,15.13
2019-03-08T21:48:15.653Z,14.50
2019-03-08T21:51:05.383Z,11.35
2019-03-08T21:53:55.978Z,20.80
2019-03-08T21:56:45.423Z,10.30
2019-03-08T21:59:34.520Z,16.02
2019-03-08T22:02:23.826Z,15.13
2019-03-08T22:05:13.984Z,13.75
2019-03-08T22:08:02.882Z,9.95
2019-03-08T22:10:52.222Z,14.58
2019-03-08T22:13:40.816Z,18.87
2019-03-08T22:16:29.936Z,9.28
2019-03-08T22:19:18.795Z,15.32
2019-03-08T22:22:07.746Z,11.20
2019-03-08T22:24:57.324Z,14.10
2019-03-08T22:27:46.181Z,21.87
2019-03-08T22:30:35.759Z,15.78
2019-03-08T22:33:25.094Z,15.43
2019-03-08T22:36:13.795Z,16.12
2019-03-08T22:39:02.673Z,13.78
2019-03-08T22:41:51.920Z,10.53
2019-03-08T22:44:41.899Z,13.43
2019-03-08T22:47:31.568Z,10.88
2019-03-08T22:50:20.116Z,19.45
2019-03-08T22:53:09.403Z,10.98
2019-03-08T22:55:58.945Z,10.82
2019-03-08T22:58:48.226Z,14.40
2019-03-08T23:01:42.230Z,8.58
2019-03-08T23:04:31.077Z,19.37
2019-03-08T23:07:20.262Z,19.70
2019-03-08T23:10:12.965Z,10.88
2019-03-08T23:13:02.079Z,13.95
2019-03-08T23:15:51.108Z,12.88
2019-03-08T23:18:40.310Z,12.65
2019-03-08T23:21:29.593Z,10.88
2019-03-08T23:24:19.053Z,12.65
2019-03-08T23:27:15.764Z,14.13
2019-03-08T23:30:10.323Z,12.95
2019-03-08T23:32:59.558Z,14.45
2019-03-08T23:35:48.279Z,14.07
2019-03-08T23:38:37.688Z,22.60
2019-03-08T23:41:26.434Z,22.45
2019-03-08T23:44:15.298Z,16.85
2019-03-08T23:47:04.724Z,12.05
2019-03-08T23:49:54.173Z,14.75
2019-03-08T23:52:42.830Z,16.25
2019-03-08T23:55:32.375Z,17.92
2019-03-08T23:58:21.889Z,17.65
